Sd416 Nippon — SKPF — position and weather

sailwx.info

Track history (hours):
 
Tides and Currents Weather Stations Pressure Air Temp Water Temp Dewpoint Dewpoint Depression Visibility Wind Speed Wind Dir Waves Ship Positions

Sd416 Nippon

Last reported at 2015-Aug-28 16:34 UTC. Time now 2015-Aug-28 17:10 UTC.
Position N 58°56' E 011°10'.

Length 17 m; draft 2.5 m.

Type: Fishing. MMSI: 266163000.

Date/timePositionNaut miles runAvg speedWind from/ knotsBaromVisibWave heightAir tempDewpointWater temp
2015-Aug-28 16:34N 58°56' E 011°10'0 0.0
2015-Aug-28 15:33N 58°56' E 011°10'  
2015-Aug-25 12:34N 58°56' E 011°10'0 0.0
2015-Aug-25 11:34N 58°56' E 011°10'0 0.0
2015-Aug-25 10:33N 58°56' E 011°10'0 0.0
2015-Aug-25 09:34N 58°56' E 011°10'0 0.0
2015-Aug-25 08:33N 58°56' E 011°10'3 3.5
2015-Aug-25 07:34N 58°56' E 011°04'4 3.5
2015-Aug-25 06:34N 58°55' E 010°57'7 7.1
2015-Aug-25 05:34N 58°49' E 010°51'4 4.2
2015-Aug-25 04:33N 58°46' E 010°44'1 0.5
2015-Aug-25 03:34N 58°46' E 010°44'1 1.3
2015-Aug-25 02:34N 58°48' E 010°43'1 1.3
2015-Aug-25 01:34N 58°49' E 010°43'1 1.3
2015-Aug-25 00:33N 58°50' E 010°43'1 1.3
2015-Aug-24 23:32N 58°52' E 010°43'10 3.4
2015-Aug-24 20:34N 58°56' E 011°00'5 1.6
2015-Aug-24 17:25N 58°52' E 011°06'5 1.3
2015-Aug-24 13:23N 58°47' E 011°05'0 0.1
2015-Aug-24 07:26N 58°47' E 011°05'6 1.2
2015-Aug-24 02:29N 58°53' E 011°05'5 4.0
2015-Aug-24 01:09N 58°53' E 010°55'4 6.9
2015-Aug-24 00:34N 58°50' E 010°52'6 5.6
2015-Aug-23 23:34N 58°46' E 010°43'4 1.1
2015-Aug-23 19:33N 58°50' E 010°43'1 1.3
2015-Aug-23 18:33N 58°52' E 010°43'1 1.4
2015-Aug-23 17:34N 58°53' E 010°42'5 5.1
2015-Aug-23 16:34N 58°54' E 010°51'8 7.9
2015-Aug-23 15:34N 58°56' E 011°06'2 2.1
2015-Aug-23 14:34N 58°56' E 011°10'0 0.0
2015-Aug-23 13:34N 58°56' E 011°10'0 0.0
2015-Aug-23 12:34N 58°56' E 011°10'0 0.0
2015-Aug-23 11:34N 58°56' E 011°10'0 0.0
2015-Aug-23 10:34N 58°56' E 011°10'0 0.0
2015-Aug-23 09:33N 58°56' E 011°10'0 0.0
2015-Aug-23 08:34N 58°56' E 011°10'0 0.0
2015-Aug-23 07:33N 58°56' E 011°10'0 0.0
2015-Aug-23 06:33N 58°56' E 011°10'0 0.0
2015-Aug-23 05:34N 58°56' E 011°10'0 0.0
2015-Aug-23 04:34N 58°56' E 011°10'0 0.0
2015-Aug-23 03:34N 58°56' E 011°10'0 0.0
2015-Aug-23 02:34N 58°56' E 011°10'0 0.0
2015-Aug-23 01:34N 58°56' E 011°10'0 0.0
2015-Aug-23 00:34N 58°56' E 011°10'0 0.0
2015-Aug-22 23:34N 58°56' E 011°10'0 0.0
2015-Aug-22 22:33N 58°56' E 011°10'0 0.0
2015-Aug-22 21:34N 58°56' E 011°10'0 0.0
2015-Aug-22 20:34N 58°56' E 011°10'0 0.0
2015-Aug-22 19:34N 58°56' E 011°10'0 0.0
2015-Aug-22 18:34N 58°56' E 011°10'0 0.0
2015-Aug-22 17:34N 58°56' E 011°10'0 0.0
2015-Aug-22 16:34N 58°56' E 011°10'0 0.0
2015-Aug-22 15:34N 58°56' E 011°10'0 0.0
2015-Aug-22 14:34N 58°56' E 011°10'0 0.0
2015-Aug-22 13:34N 58°56' E 011°10'0 0.0
2015-Aug-22 12:34N 58°56' E 011°10'0 0.0
2015-Aug-22 11:33N 58°56' E 011°10'0 0.0
2015-Aug-22 10:34N 58°56' E 011°10'0 0.0
2015-Aug-22 09:34N 58°56' E 011°10'0 0.0
2015-Aug-22 08:33N 58°56' E 011°10'0 0.0
2015-Aug-22 07:33N 58°56' E 011°10'0 0.0
2015-Aug-22 06:34N 58°56' E 011°10'0 0.0
2015-Aug-22 05:34N 58°56' E 011°10'0 0.0
2015-Aug-22 04:34N 58°56' E 011°10'0 0.0
2015-Aug-22 03:34N 58°56' E 011°10'0 0.0
2015-Aug-22 02:34N 58°56' E 011°10'0 0.0
2015-Aug-22 01:34N 58°56' E 011°10'0 0.0
2015-Aug-22 00:34N 58°56' E 011°10'0 0.0
2015-Aug-21 23:34N 58°56' E 011°10'0 0.0
2015-Aug-21 22:34N 58°56' E 011°10'0 0.0
2015-Aug-21 21:34N 58°56' E 011°10'0 0.0
2015-Aug-21 20:34N 58°56' E 011°10'0 0.0
2015-Aug-21 19:34N 58°56' E 011°10'0 0.0
2015-Aug-21 18:34N 58°56' E 011°10'0 0.0
2015-Aug-21 17:33N 58°56' E 011°10'0 0.0
2015-Aug-21 16:33N 58°56' E 011°10'0 0.0
2015-Aug-21 15:34N 58°56' E 011°10'0 0.0
2015-Aug-21 14:34N 58°56' E 011°10'0 0.0
2015-Aug-21 13:34N 58°56' E 011°10'0 0.0
2015-Aug-21 12:33N 58°56' E 011°10'0 0.0
2015-Aug-21 11:34N 58°56' E 011°10'0 0.0
2015-Aug-21 10:34N 58°56' E 011°10'0 0.0
2015-Aug-21 09:34N 58°56' E 011°10'0 0.0
2015-Aug-21 08:34N 58°56' E 011°10'0 0.0
2015-Aug-21 07:34N 58°56' E 011°10'0 0.0
2015-Aug-21 06:33N 58°56' E 011°10'0 0.0
2015-Aug-21 05:34N 58°56' E 011°10'0 0.0
2015-Aug-21 04:34N 58°56' E 011°10'0 0.0
2015-Aug-21 03:33N 58°56' E 011°10'0 0.0
2015-Aug-21 02:34N 58°56' E 011°10'0 0.0
2015-Aug-21 01:34N 58°56' E 011°10'0 0.0
2015-Aug-21 00:34N 58°56' E 011°10'0 0.0
2015-Aug-20 23:34N 58°56' E 011°10'0 0.0
2015-Aug-20 22:34N 58°56' E 011°10'0 0.0
2015-Aug-20 21:34N 58°56' E 011°10'0 0.0
2015-Aug-20 20:34N 58°56' E 011°10'0 0.0
2015-Aug-20 19:34N 58°56' E 011°10'0 0.0
2015-Aug-20 18:34N 58°56' E 011°10'0 0.0
2015-Aug-20 17:34N 58°56' E 011°10'0 0.0
2015-Aug-20 16:34N 58°56' E 011°10'0 0.0
2015-Aug-20 15:34N 58°56' E 011°10'0 0.0
2015-Aug-20 14:34N 58°56' E 011°10'0 0.0
2015-Aug-20 13:34N 58°56' E 011°10'0 0.0
2015-Aug-20 12:34N 58°56' E 011°10'0 0.0
2015-Aug-20 11:34N 58°56' E 011°10'0 0.0
2015-Aug-20 10:34N 58°56' E 011°10'0 0.0
2015-Aug-20 09:34N 58°56' E 011°10'0 0.0
2015-Aug-20 08:34N 58°56' E 011°10'0 0.0
2015-Aug-20 07:34N 58°56' E 011°10'0 0.0
2015-Aug-20 06:34N 58°56' E 011°10'0 0.0
2015-Aug-20 05:34N 58°56' E 011°10'0 0.0
2015-Aug-20 04:34N 58°56' E 011°10'0 0.0
2015-Aug-20 03:34N 58°56' E 011°10'0 0.0
2015-Aug-20 02:33N 58°56' E 011°10'0 0.0
2015-Aug-20 01:34N 58°56' E 011°10'0 0.0
2015-Aug-20 00:34N 58°56' E 011°10'0 0.0
2015-Aug-19 23:34N 58°56' E 011°10'0 0.0
2015-Aug-19 22:34N 58°56' E 011°10'0 0.0
2015-Aug-19 21:34N 58°56' E 011°10'0 0.0
2015-Aug-19 20:34N 58°56' E 011°10'0 0.0
2015-Aug-19 19:34N 58°56' E 011°10'0 0.0
2015-Aug-19 18:34N 58°56' E 011°10'0 0.0
2015-Aug-19 17:34N 58°56' E 011°10'0 0.0
2015-Aug-19 16:34N 58°56' E 011°10'0 0.0
2015-Aug-19 15:34N 58°56' E 011°10'0 0.0
2015-Aug-19 14:34N 58°56' E 011°10'0 0.0
2015-Aug-19 13:34N 58°56' E 011°10'0 0.0
2015-Aug-19 12:34N 58°56' E 011°10'0 0.0
2015-Aug-19 11:34N 58°56' E 011°10'0 0.0
2015-Aug-19 10:34N 58°56' E 011°10'0 0.0
2015-Aug-19 09:34N 58°56' E 011°10'4 4.1
2015-Aug-19 08:34N 58°55' E 011°02'6 6.3
2015-Aug-19 07:34N 58°51' E 010°53'5 5.3
2015-Aug-19 06:33N 58°47' E 010°46'2 1.9
2015-Aug-19 05:34N 58°46' E 010°44'2 1.5
2015-Aug-19 04:33N 58°48' E 010°43'1 1.5
2015-Aug-19 03:34N 58°49' E 010°43'1 0.5
2015-Aug-19 02:33N 58°50' E 010°43'4 4.0
2015-Aug-19 01:33N 58°54' E 010°41'1 0.8
2015-Aug-19 00:33N 58°53' E 010°42'1 1.3
2015-Aug-18 23:33N 58°52' E 010°43'1 1.3
2015-Aug-18 22:33N 58°50' E 010°43'1 1.3
2015-Aug-18 21:33N 58°49' E 010°43'1 1.2
2015-Aug-18 20:34N 58°48' E 010°43'1 1.3
2015-Aug-18 19:34N 58°47' E 010°44'1 1.0
2015-Aug-18 18:34N 58°46' E 010°44'8 7.8
2015-Aug-18 17:33N 58°52' E 010°52'  
Track history (hours):
 
Tides and Currents Weather Stations Pressure Air Temp Water Temp Dewpoint Dewpoint Depression Visibility Wind Speed Wind Dir Waves Ship Positions

Sd416 Nippon

Last reported at 2015-Aug-28 16:34 UTC. Time now 2015-Aug-28 17:10 UTC.
Position N 58°56' E 011°10'.

Length 17 m; draft 2.5 m.

Type: Fishing. MMSI: 266163000.

Date/timePositionNaut miles runAvg speedWind from/ knotsBaromVisibWave heightAir tempDewpointWater temp
2015-Aug-28 16:34N 58°56' E 011°10'0 0.0
2015-Aug-28 15:33N 58°56' E 011°10'  
2015-Aug-25 12:34N 58°56' E 011°10'0 0.0
2015-Aug-25 11:34N 58°56' E 011°10'0 0.0
2015-Aug-25 10:33N 58°56' E 011°10'0 0.0
2015-Aug-25 09:34N 58°56' E 011°10'0 0.0
2015-Aug-25 08:33N 58°56' E 011°10'3 3.5
2015-Aug-25 07:34N 58°56' E 011°04'4 3.5
2015-Aug-25 06:34N 58°55' E 010°57'7 7.1
2015-Aug-25 05:34N 58°49' E 010°51'4 4.2
2015-Aug-25 04:33N 58°46' E 010°44'1 0.5
2015-Aug-25 03:34N 58°46' E 010°44'1 1.3
2015-Aug-25 02:34N 58°48' E 010°43'1 1.3
2015-Aug-25 01:34N 58°49' E 010°43'1 1.3
2015-Aug-25 00:33N 58°50' E 010°43'1 1.3
2015-Aug-24 23:32N 58°52' E 010°43'10 3.4
2015-Aug-24 20:34N 58°56' E 011°00'5 1.6
2015-Aug-24 17:25N 58°52' E 011°06'5 1.3
2015-Aug-24 13:23N 58°47' E 011°05'0 0.1
2015-Aug-24 07:26N 58°47' E 011°05'6 1.2
2015-Aug-24 02:29N 58°53' E 011°05'5 4.0
2015-Aug-24 01:09N 58°53' E 010°55'4 6.9
2015-Aug-24 00:34N 58°50' E 010°52'6 5.6
2015-Aug-23 23:34N 58°46' E 010°43'4 1.1
2015-Aug-23 19:33N 58°50' E 010°43'1 1.3
2015-Aug-23 18:33N 58°52' E 010°43'1 1.4
2015-Aug-23 17:34N 58°53' E 010°42'5 5.1
2015-Aug-23 16:34N 58°54' E 010°51'8 7.9
2015-Aug-23 15:34N 58°56' E 011°06'2 2.1
2015-Aug-23 14:34N 58°56' E 011°10'0 0.0
2015-Aug-23 13:34N 58°56' E 011°10'0 0.0
2015-Aug-23 12:34N 58°56' E 011°10'0 0.0
2015-Aug-23 11:34N 58°56' E 011°10'0 0.0
2015-Aug-23 10:34N 58°56' E 011°10'0 0.0
2015-Aug-23 09:33N 58°56' E 011°10'0 0.0
2015-Aug-23 08:34N 58°56' E 011°10'0 0.0
2015-Aug-23 07:33N 58°56' E 011°10'0 0.0
2015-Aug-23 06:33N 58°56' E 011°10'0 0.0
2015-Aug-23 05:34N 58°56' E 011°10'0 0.0
2015-Aug-23 04:34N 58°56' E 011°10'0 0.0
2015-Aug-23 03:34N 58°56' E 011°10'0 0.0
2015-Aug-23 02:34N 58°56' E 011°10'0 0.0
2015-Aug-23 01:34N 58°56' E 011°10'0 0.0
2015-Aug-23 00:34N 58°56' E 011°10'0 0.0
2015-Aug-22 23:34N 58°56' E 011°10'0 0.0
2015-Aug-22 22:33N 58°56' E 011°10'0 0.0
2015-Aug-22 21:34N 58°56' E 011°10'0 0.0
2015-Aug-22 20:34N 58°56' E 011°10'0 0.0
2015-Aug-22 19:34N 58°56' E 011°10'0 0.0
2015-Aug-22 18:34N 58°56' E 011°10'0 0.0
2015-Aug-22 17:34N 58°56' E 011°10'0 0.0
2015-Aug-22 16:34N 58°56' E 011°10'0 0.0
2015-Aug-22 15:34N 58°56' E 011°10'0 0.0
2015-Aug-22 14:34N 58°56' E 011°10'0 0.0
2015-Aug-22 13:34N 58°56' E 011°10'0 0.0
2015-Aug-22 12:34N 58°56' E 011°10'0 0.0
2015-Aug-22 11:33N 58°56' E 011°10'0 0.0
2015-Aug-22 10:34N 58°56' E 011°10'0 0.0
2015-Aug-22 09:34N 58°56' E 011°10'0 0.0
2015-Aug-22 08:33N 58°56' E 011°10'0 0.0
2015-Aug-22 07:33N 58°56' E 011°10'0 0.0
2015-Aug-22 06:34N 58°56' E 011°10'0 0.0
2015-Aug-22 05:34N 58°56' E 011°10'0 0.0
2015-Aug-22 04:34N 58°56' E 011°10'0 0.0
2015-Aug-22 03:34N 58°56' E 011°10'0 0.0
2015-Aug-22 02:34N 58°56' E 011°10'0 0.0
2015-Aug-22 01:34N 58°56' E 011°10'0 0.0
2015-Aug-22 00:34N 58°56' E 011°10'0 0.0
2015-Aug-21 23:34N 58°56' E 011°10'0 0.0
2015-Aug-21 22:34N 58°56' E 011°10'0 0.0
2015-Aug-21 21:34N 58°56' E 011°10'0 0.0
2015-Aug-21 20:34N 58°56' E 011°10'0 0.0
2015-Aug-21 19:34N 58°56' E 011°10'0 0.0
2015-Aug-21 18:34N 58°56' E 011°10'0 0.0
2015-Aug-21 17:33N 58°56' E 011°10'0 0.0
2015-Aug-21 16:33N 58°56' E 011°10'0 0.0
2015-Aug-21 15:34N 58°56' E 011°10'0 0.0
2015-Aug-21 14:34N 58°56' E 011°10'0 0.0
2015-Aug-21 13:34N 58°56' E 011°10'0 0.0
2015-Aug-21 12:33N 58°56' E 011°10'0 0.0
2015-Aug-21 11:34N 58°56' E 011°10'0 0.0
2015-Aug-21 10:34N 58°56' E 011°10'0 0.0
2015-Aug-21 09:34N 58°56' E 011°10'0 0.0
2015-Aug-21 08:34N 58°56' E 011°10'0 0.0
2015-Aug-21 07:34N 58°56' E 011°10'0 0.0
2015-Aug-21 06:33N 58°56' E 011°10'0 0.0
2015-Aug-21 05:34N 58°56' E 011°10'0 0.0
2015-Aug-21 04:34N 58°56' E 011°10'0 0.0
2015-Aug-21 03:33N 58°56' E 011°10'0 0.0
2015-Aug-21 02:34N 58°56' E 011°10'0 0.0
2015-Aug-21 01:34N 58°56' E 011°10'0 0.0
2015-Aug-21 00:34N 58°56' E 011°10'0 0.0
2015-Aug-20 23:34N 58°56' E 011°10'0 0.0
2015-Aug-20 22:34N 58°56' E 011°10'0 0.0
2015-Aug-20 21:34N 58°56' E 011°10'0 0.0
2015-Aug-20 20:34N 58°56' E 011°10'0 0.0
2015-Aug-20 19:34N 58°56' E 011°10'0 0.0
2015-Aug-20 18:34N 58°56' E 011°10'0 0.0
2015-Aug-20 17:34N 58°56' E 011°10'0 0.0
2015-Aug-20 16:34N 58°56' E 011°10'0 0.0
2015-Aug-20 15:34N 58°56' E 011°10'0 0.0
2015-Aug-20 14:34N 58°56' E 011°10'0 0.0
2015-Aug-20 13:34N 58°56' E 011°10'0 0.0
2015-Aug-20 12:34N 58°56' E 011°10'0 0.0
2015-Aug-20 11:34N 58°56' E 011°10'0 0.0
2015-Aug-20 10:34N 58°56' E 011°10'0 0.0
2015-Aug-20 09:34N 58°56' E 011°10'0 0.0
2015-Aug-20 08:34N 58°56' E 011°10'0 0.0
2015-Aug-20 07:34N 58°56' E 011°10'0 0.0
2015-Aug-20 06:34N 58°56' E 011°10'0 0.0
2015-Aug-20 05:34N 58°56' E 011°10'0 0.0
2015-Aug-20 04:34N 58°56' E 011°10'0 0.0
2015-Aug-20 03:34N 58°56' E 011°10'0 0.0
2015-Aug-20 02:33N 58°56' E 011°10'0 0.0
2015-Aug-20 01:34N 58°56' E 011°10'0 0.0
2015-Aug-20 00:34N 58°56' E 011°10'0 0.0
2015-Aug-19 23:34N 58°56' E 011°10'0 0.0
2015-Aug-19 22:34N 58°56' E 011°10'0 0.0
2015-Aug-19 21:34N 58°56' E 011°10'0 0.0
2015-Aug-19 20:34N 58°56' E 011°10'0 0.0
2015-Aug-19 19:34N 58°56' E 011°10'0 0.0
2015-Aug-19 18:34N 58°56' E 011°10'0 0.0
2015-Aug-19 17:34N 58°56' E 011°10'0 0.0
2015-Aug-19 16:34N 58°56' E 011°10'0 0.0
2015-Aug-19 15:34N 58°56' E 011°10'0 0.0
2015-Aug-19 14:34N 58°56' E 011°10'0 0.0
2015-Aug-19 13:34N 58°56' E 011°10'0 0.0
2015-Aug-19 12:34N 58°56' E 011°10'0 0.0
2015-Aug-19 11:34N 58°56' E 011°10'0 0.0
2015-Aug-19 10:34N 58°56' E 011°10'0 0.0
2015-Aug-19 09:34N 58°56' E 011°10'4 4.1
2015-Aug-19 08:34N 58°55' E 011°02'6 6.3
2015-Aug-19 07:34N 58°51' E 010°53'5 5.3
2015-Aug-19 06:33N 58°47' E 010°46'2 1.9
2015-Aug-19 05:34N 58°46' E 010°44'2 1.5
2015-Aug-19 04:33N 58°48' E 010°43'1 1.5
2015-Aug-19 03:34N 58°49' E 010°43'1 0.5
2015-Aug-19 02:33N 58°50' E 010°43'4 4.0
2015-Aug-19 01:33N 58°54' E 010°41'1 0.8
2015-Aug-19 00:33N 58°53' E 010°42'1 1.3
2015-Aug-18 23:33N 58°52' E 010°43'1 1.3
2015-Aug-18 22:33N 58°50' E 010°43'1 1.3
2015-Aug-18 21:33N 58°49' E 010°43'1 1.2
2015-Aug-18 20:34N 58°48' E 010°43'1 1.3
2015-Aug-18 19:34N 58°47' E 010°44'1 1.0
2015-Aug-18 18:34N 58°46' E 010°44'8 7.8
2015-Aug-18 17:33N 58°52' E 010°52'  

Dump ship's entire track history